Relevés horaires Les Attelas (Suisse)


Relevés horaires à Les Attelas - Mercredi 13 Janv. 2016
Heure UTC1 Température [°C] Vent [km/h] Hum. [%] Pres.4 [hPa] Visi. [Km] Nébu. [octa] Préc.5 [mm] Cond.
2m. Res. Ros. Dir.2 Vit. Moy. Raf.3
23:00 -11.2 -17.7 -25.5 S 13.0 16.7 24.1 29 700(-0.9/3h) -- -- -- --
22:00 -11.4 -18.9 -26.7 SO 16.7 20.4 29.6 27 700(-0.2/3h) -- -- -- --
21:00 -12.1 -18.2 -24.7 S 11.1 13.0 22.2 34 700(-0.6/3h) -- -- -- --
20:00 -13.1 -20 -24.0 S 13.0 13.0 16.7 39 700(-0.7/3h) -- -- -- --
19:00 -12.6 -18.8 -25.8 SSO 11.1 13.0 20.4 32 700(-0.8/3h) -- -- -- --
18:00 -12.9 -18.5 -24.1 SO 9.3 22.2 40.7 38 700(-0.6/3h) -- -- -- --
17:00 -12.9 -19.7 -24.6 S 13.0 16.7 20.4 37 700(-0.1/3h) -- -- -- --
16:00 -14.4 -22.1 -18.7 S 14.8 18.5 24.1 70 700(0.1/3h) -- -- -- --
15:00 -14.4 -20.9 -14.4 S 11.1 22.2 40.7 100 700(0.4/3h) -- -- -- --
14:00 -13.9 -23.2 -13.9 SSO 22.2 22.2 38.9 100 700(0.2/3h) -- -- -- --
13:00 -13.5 -21.9 -13.5 SO 18.5 22.2 40.7 100 700(0.3/3h) -- -- -- --
12:00 -14.1 -23.9 -14.1 SO 24.1 24.1 51.9 100 700(1.2/3h) -- -- -- --
11:00 -14.0 -18.9 -14.0 O 7.4 14.8 29.6 100 700(1.7/3h) -- -- -- --
10:00 -14.1 -20.6 -14.1 ONO 11.1 13.0 29.6 100 700(2.1/3h) -- -- -- --
09:00 -14.4 -21.6 -14.4 SSO 13.0 22.2 51.9 100 700(2.1/3h) -- -- -- --
08:00 -14.6 -20.5 -14.6 ONO 9.3 16.7 44.4 100 700(2.0/3h) -- -- -- --
07:00 -14.5 -21.1 -14.5 O 11.1 18.5 51.9 100 700(1.4/3h) -- -- -- --
06:00 -14.3 -22 -14.3 O 14.8 29.6 53.7 100 700(1.1/3h) -- -- -- --
05:00 -14.7 -23.4 -15.9 ONO 18.5 18.5 50.0 91 700(0.6/3h) -- -- -- --
04:00 -14.2 -23.6 -14.2 ONO 22.2 22.2 50.0 100 700(1.3/3h) -- -- -- --
03:00 -14.0 -23 -14.0 OSO 20.4 29.6 53.7 100 700(1.0/3h) -- -- -- --
02:00 -14.0 -19.8 -14.0 NO 9.3 27.8 53.7 100 700(2.0/3h) -- -- -- --
01:00 -13.5 -22.4 -13.5 SO 20.4 29.6 48.2 100 700(1.0/3h) -- -- -- --
00:00 -12.7 -19.5 -12.7 ONO 13.0 29.6 53.7 100 700(1.0/3h) -- -- -- --

1 Coordinated Universal Time. Actuellement il est 15:00 locale et 13:00 UTC.

2 Le vent souffle depuis la direction indiquée vers la direction oposée.

3 Les rafales max. sont disponible 40 min après l'heure du relevé.

4 Pour les stations d'altitude (plus de 600m) le géopotentiel du niveau le plus proche de la pression obligatoire est indiqué.

5 Les stations disposant d'un diffuseur peuvent indiquer "trace". Cela signifie que des précipitations ont touchés le sol mais que la quantité est inférieure à 0.1 mm.

Copyright

Les données affichées sur cette page sont la propriété exclusive de Météo Suisse.

Récapitulatif de la journée
Température [°C] Vent [km/h] Ensoleillement4 [h] Precipitations totale5 [mm] Pression [Hpa]
Min1 Max.2 Moy.3 Max. Min Max.
-14.7 -12.8 20.7 53.7 2 h 6 min 0 700.0 700.0

1 Température minimale relevée entre 18:00 UTC la veille et 18:00 UTC le jour donné.

2 Température maximale relevée entre 06:00 UTC le jour donné et 06:00 UTC le lendemain.

3 Vent moyen de la journée basé sur les relevés horaires.

4 Ensoleillement en heures relevé entre 06:00 UTC la veille et 06:00 UTC le jour donné.

5 Précipitations totales tombées entre 06:00 UTC la jour donné et 06:00 UTC le lendemain.

Graphiques horaires